Time;durP1;ratioP1;P1;durP2;ratioP2;P2;SDS_P1;SDS_P2;PMS_P1;PMS_P2;Temp;Humidity;BMP_temperature;BMP_pressure;BME280_temperature;BME280_humidity;BME280_pressure;Samples;Min_cycle;Max_cycle;Signal;HPM_P1;HPM_P2
2023/01/12 00:00:37;;;;;;;35.40;19.55;;;9.10;99.90;;;;;;5145294;28;20118;-65
2023/01/12 00:03:08;;;;;;;55.90;29.70;;;8.90;99.90;;;;;;5145340;28;20034;-65
2023/01/12 00:05:38;;;;;;;21.73;11.85;;;8.60;99.90;;;;;;5145337;28;20042;-64
2023/01/12 00:08:09;;;;;;;29.85;16.35;;;8.80;99.90;;;;;;5145273;28;20026;-64
2023/01/12 00:10:40;;;;;;;24.40;11.95;;;8.80;99.90;;;;;;5145111;28;20027;-64
2023/01/12 00:13:11;;;;;;;19.67;12.70;;;8.90;99.90;;;;;;5144928;28;20035;-69
2023/01/12 00:18:32;;;;;;;23.65;12.82;;;8.80;99.90;;;;;;5145103;28;20391;-67
2023/01/12 00:21:04;;;;;;;28.13;12.82;;;8.90;99.90;;;;;;5144749;28;20051;-63
2023/01/12 00:23:35;;;;;;;24.98;11.90;;;9.20;99.90;;;;;;5144824;28;20058;-64
2023/01/12 00:26:07;;;;;;;25.27;11.30;;;9.00;99.90;;;;;;5144979;28;20483;-67
2023/01/12 00:28:38;;;;;;;10.18;7.45;;;9.10;99.90;;;;;;5145087;28;20493;-64
2023/01/12 00:31:10;;;;;;;13.85;7.88;;;9.10;99.90;;;;;;5144954;28;20027;-65
2023/01/12 00:33:40;;;;;;;11.02;7.78;;;8.90;99.90;;;;;;5144886;28;20121;-64
2023/01/12 00:36:14;;;;;;;8.30;5.05;;;8.60;99.90;;;;;;5145201;28;20102;-64
2023/01/12 00:38:47;;;;;;;11.75;6.00;;;8.80;99.90;;;;;;5145234;28;20086;-64
2023/01/12 00:46:56;;;;;;;12.02;6.32;;;8.90;99.90;;;;;;5144816;28;20386;-63
2023/01/12 00:49:27;;;;;;;7.38;5.63;;;8.70;99.90;;;;;;5144593;28;20027;-64
2023/01/12 00:51:58;;;;;;;11.73;6.70;;;8.90;99.90;;;;;;5144425;28;20031;-64
2023/01/12 00:54:29;;;;;;;12.45;6.20;;;8.80;99.90;;;;;;5144527;28;20033;-63
2023/01/12 00:57:01;;;;;;;9.00;6.35;;;8.80;99.90;;;;;;5144752;28;20014;-66
2023/01/12 00:59:31;;;;;;;8.68;6.43;;;9.00;99.90;;;;;;5144665;28;20158;-64
2023/01/12 01:02:03;;;;;;;10.00;6.40;;;9.10;99.90;;;;;;5144714;28;20084;-67
2023/01/12 01:04:34;;;;;;;10.57;6.22;;;8.90;99.90;;;;;;5144290;28;20113;-67
2023/01/12 01:07:05;;;;;;;10.90;6.28;;;9.00;99.90;;;;;;5144476;28;20026;-65
2023/01/12 01:09:36;;;;;;;10.00;6.15;;;9.20;99.90;;;;;;5144360;28;20089;-63
2023/01/12 01:12:07;;;;;;;8.45;5.90;;;9.20;99.90;;;;;;5144217;28;20026;-64
2023/01/12 01:14:38;;;;;;;9.75;6.10;;;9.10;99.90;;;;;;5144404;28;20485;-64
2023/01/12 01:17:09;;;;;;;9.85;5.47;;;9.00;99.90;;;;;;5144463;28;20161;-63
2023/01/12 01:19:40;;;;;;;18.90;6.45;;;9.10;99.90;;;;;;5144275;28;20114;-66
2023/01/12 01:22:13;;;;;;;11.30;8.25;;;8.90;99.90;;;;;;5143833;28;20051;-64
2023/01/12 01:24:44;;;;;;;11.68;7.75;;;8.70;99.90;;;;;;5144265;28;20089;-63
2023/01/12 01:27:15;;;;;;;13.10;8.07;;;8.80;99.90;;;;;;5142932;28;20059;-64
2023/01/12 01:29:46;;;;;;;17.67;9.20;;;9.00;99.90;;;;;;5144264;28;20069;-64
2023/01/12 01:32:16;;;;;;;18.00;10.23;;;9.00;99.90;;;;;;5144200;28;20031;-64
2023/01/12 01:34:47;;;;;;;13.65;7.22;;;8.70;99.90;;;;;;5144270;28;20034;-64
2023/01/12 01:37:20;;;;;;;16.00;8.95;;;8.90;99.90;;;;;;5144168;28;20034;-64
2023/01/12 01:39:51;;;;;;;12.90;7.38;;;8.80;99.90;;;;;;5144094;28;20106;-65
2023/01/12 01:42:26;;;;;;;13.60;7.85;;;8.80;99.90;;;;;;5144089;28;20121;-69
2023/01/12 01:44:59;;;;;;;15.80;8.40;;;8.90;99.90;;;;;;5144117;28;20089;-64
2023/01/12 01:47:36;;;;;;;15.35;8.07;;;8.90;99.90;;;;;;5144117;28;20022;-65
2023/01/12 01:50:33;;;;;;;16.48;8.18;;;8.90;99.90;;;;;;5143964;28;20033;-64
2023/01/12 01:53:09;;;;;;;7.97;6.05;;;9.20;99.90;;;;;;5143760;28;20090;-63
2023/01/12 01:55:40;;;;;;;10.98;6.07;;;9.20;99.90;;;;;;5143783;28;20023;-64
2023/01/12 01:58:18;;;;;;;19.65;6.07;;;9.30;99.90;;;;;;5143948;28;20015;-63
2023/01/12 02:00:51;;;;;;;9.27;6.07;;;9.10;99.90;;;;;;5143973;28;20094;-63
2023/01/12 02:03:23;;;;;;;8.75;6.45;;;9.00;99.90;;;;;;5143856;28;20025;-64
2023/01/12 02:05:56;;;;;;;8.23;6.55;;;8.80;99.90;;;;;;5143867;28;20062;-64
2023/01/12 02:08:42;;;;;;;9.73;6.40;;;9.10;99.90;;;;;;5143726;28;20108;-64
2023/01/12 02:17:42;;;;;;;9.82;5.85;;;9.10;99.90;;;;;;5146737;28;20121;-65
2023/01/12 02:20:49;;;;;;;14.52;5.78;;;9.10;99.90;;;;;;5136013;28;20057;-67
2023/01/12 02:23:56;;;;;;;11.70;6.55;;;9.20;99.90;;;;;;5147062;28;20053;-66
2023/01/12 02:27:03;;;;;;;9.30;5.35;;;8.70;99.90;;;;;;5147252;28;20490;-68
2023/01/12 02:30:09;;;;;;;8.85;5.43;;;8.70;99.90;;;;;;5147021;28;20023;-64
2023/01/12 02:33:04;;;;;;;9.48;6.85;;;8.90;99.90;;;;;;5135020;28;20137;-64
2023/01/12 02:35:45;;;;;;;22.77;6.88;;;8.90;99.90;;;;;;5147020;28;20034;-65
2023/01/12 02:38:56;;;;;;;11.10;5.90;;;9.00;99.90;;;;;;5146982;28;20034;-64
2023/01/12 02:44:41;;;;;;;10.00;6.68;;;8.90;99.90;;;;;;5147439;28;20140;-64
2023/01/12 02:47:24;;;;;;;7.97;5.43;;;8.90;99.90;;;;;;5146938;28;20117;-63
2023/01/12 02:50:00;;;;;;;10.88;7.75;;;9.00;99.90;;;;;;5146697;28;20030;-64
2023/01/12 02:52:33;;;;;;;17.42;8.23;;;9.00;99.90;;;;;;5146434;28;20129;-64
2023/01/12 02:55:05;;;;;;;16.08;9.82;;;9.10;99.90;;;;;;5146640;28;20479;-64
2023/01/12 02:57:37;;;;;;;25.63;12.68;;;9.10;99.90;;;;;;5146631;28;20474;-64
2023/01/12 03:00:09;;;;;;;20.35;11.27;;;9.10;99.90;;;;;;5146914;28;20058;-64
2023/01/12 03:02:40;;;;;;;14.30;8.90;;;9.10;99.90;;;;;;5146600;28;20378;-64
2023/01/12 03:05:11;;;;;;;13.95;8.75;;;8.90;99.90;;;;;;5146450;28;20086;-63
2023/01/12 03:07:57;;;;;;;19.17;12.13;;;9.10;99.90;;;;;;5146467;28;20027;-63
2023/01/12 03:11:05;;;;;;;47.85;25.48;;;9.00;99.90;;;;;;5146306;28;20026;-65
2023/01/12 03:13:49;;;;;;;42.53;23.60;;;9.00;99.90;;;;;;5146248;28;20498;-64
2023/01/12 03:16:25;;;;;;;39.22;22.02;;;8.80;99.90;;;;;;5146370;28;20045;-64
2023/01/12 03:19:14;;;;;;;45.38;24.80;;;8.80;99.90;;;;;;5146330;28;20035;-64
2023/01/12 03:21:54;;;;;;;42.35;22.58;;;8.50;99.90;;;;;;5145982;28;20158;-65
2023/01/12 03:24:33;;;;;;;37.00;19.35;;;8.50;99.90;;;;;;5146294;28;20050;-64
2023/01/12 03:27:12;;;;;;;23.95;14.75;;;8.80;99.90;;;;;;5146024;28;20497;-64
2023/01/12 03:29:51;;;;;;;33.55;18.52;;;8.90;99.90;;;;;;5146152;28;20525;-64
2023/01/12 03:32:22;;;;;;;25.92;15.73;;;8.70;99.90;;;;;;5146272;28;20027;-68
2023/01/12 03:34:53;;;;;;;41.42;24.70;;;8.90;99.90;;;;;;5146058;28;20031;-64
2023/01/12 03:37:35;;;;;;;40.72;26.45;;;8.40;99.90;;;;;;5145948;28;20034;-64
2023/01/12 03:40:28;;;;;;;41.08;22.50;;;8.30;99.90;;;;;;5145884;28;20030;-63
2023/01/12 03:43:10;;;;;;;32.28;23.33;;;8.50;99.90;;;;;;5145710;28;20038;-64
2023/01/12 03:46:00;;;;;;;19.08;15.02;;;8.80;99.90;;;;;;5145708;28;20029;-69
2023/01/12 03:48:47;;;;;;;30.75;16.98;;;8.90;99.90;;;;;;5145828;28;20106;-67
2023/01/12 03:51:32;;;;;;;21.30;13.25;;;8.30;99.90;;;;;;5145405;28;20035;-63
2023/01/12 03:54:07;;;;;;;18.42;10.48;;;8.20;99.90;;;;;;5145545;28;20062;-64
2023/01/12 03:56:40;;;;;;;18.08;10.25;;;8.40;99.90;;;;;;5145455;28;20027;-64
2023/01/12 03:59:11;;;;;;;19.60;11.27;;;8.60;99.90;;;;;;5145505;28;20483;-64
2023/01/12 04:01:42;;;;;;;15.65;10.68;;;8.60;99.90;;;;;;5145639;28;20031;-64
2023/01/12 04:04:14;;;;;;;18.73;17.10;;;8.50;99.90;;;;;;5145696;28;20110;-63
2023/01/12 04:06:45;;;;;;;14.55;12.32;;;8.60;99.90;;;;;;5145391;28;20436;-64
2023/01/12 04:09:16;;;;;;;13.32;9.13;;;8.70;99.90;;;;;;5143999;28;20113;-67
2023/01/12 04:14:44;;;;;;;14.80;11.77;;;8.80;99.90;;;;;;5146015;28;20561;-66
2023/01/12 04:17:15;;;;;;;15.70;10.15;;;8.70;99.90;;;;;;5145776;28;20102;-65
2023/01/12 04:19:47;;;;;;;13.02;10.32;;;8.70;99.90;;;;;;5145405;28;20368;-67
2023/01/12 04:25:16;;;;;;;11.48;8.43;;;8.80;99.90;;;;;;5145291;28;20085;-64
2023/01/12 04:27:52;;;;;;;19.33;15.05;;;8.80;99.90;;;;;;5145389;28;20114;-64
2023/01/12 04:30:26;;;;;;;19.48;14.38;;;8.60;99.90;;;;;;5145047;28;20027;-70
2023/01/12 04:32:57;;;;;;;19.88;12.45;;;8.70;99.90;;;;;;5144855;28;20125;-65
2023/01/12 04:35:28;;;;;;;20.15;11.20;;;8.40;99.90;;;;;;5144900;28;20050;-64
2023/01/12 04:38:05;;;;;;;23.48;10.85;;;8.50;99.90;;;;;;5144723;28;20031;-64
2023/01/12 04:40:36;;;;;;;15.63;7.97;;;8.10;99.90;;;;;;5145063;28;20023;-66
2023/01/12 04:43:09;;;;;;;15.15;10.30;;;8.20;99.90;;;;;;5144948;28;20541;-68
2023/01/12 04:45:42;;;;;;;13.60;8.38;;;8.40;99.90;;;;;;5144746;28;20030;-63
2023/01/12 04:48:15;;;;;;;19.40;10.70;;;8.20;99.90;;;;;;5144763;28;20074;-64
2023/01/12 04:50:48;;;;;;;10.48;7.30;;;8.00;99.90;;;;;;5144590;28;20097;-63
2023/01/12 04:53:20;;;;;;;13.73;8.55;;;8.10;99.90;;;;;;5144425;28;20070;-64
2023/01/12 04:55:51;;;;;;;11.10;6.53;;;8.30;99.90;;;;;;5144633;28;20740;-64
2023/01/12 04:58:23;;;;;;;12.95;7.05;;;8.10;99.90;;;;;;5144539;28;20065;-66
2023/01/12 05:00:54;;;;;;;17.13;8.05;;;8.00;99.90;;;;;;5144406;28;20027;-64
2023/01/12 05:03:24;;;;;;;11.10;6.15;;;7.90;99.90;;;;;;5144436;28;20363;-63
2023/01/12 05:05:55;;;;;;;10.48;6.30;;;8.00;99.90;;;;;;5144244;28;20055;-65
2023/01/12 05:11:15;;;;;;;9.68;6.45;;;8.10;99.90;;;;;;5144407;28;20395;-64
2023/01/12 05:13:47;;;;;;;12.55;8.63;;;8.30;99.90;;;;;;5144149;28;20039;-63
2023/01/12 05:16:18;;;;;;;11.98;10.82;;;8.10;99.90;;;;;;5144293;28;20023;-65
2023/01/12 05:18:49;;;;;;;19.35;16.05;;;8.40;99.90;;;;;;5144294;28;20387;-64
2023/01/12 05:21:21;;;;;;;17.38;13.18;;;8.60;99.90;;;;;;5143801;28;20055;-67
2023/01/12 05:23:52;;;;;;;22.35;20.02;;;8.40;99.90;;;;;;5144166;28;20031;-69
2023/01/12 05:26:23;;;;;;;14.30;12.27;;;8.60;99.90;;;;;;5144251;28;20113;-63
2023/01/12 05:28:54;;;;;;;19.67;17.85;;;8.60;99.90;;;;;;5144631;28;20106;-65
2023/01/12 05:31:24;;;;;;;14.23;11.80;;;8.60;99.90;;;;;;5144727;28;20522;-64
2023/01/12 05:33:55;;;;;;;18.73;17.02;;;8.20;99.90;;;;;;5144112;28;20034;-64
2023/01/12 05:36:26;;;;;;;18.70;17.23;;;8.10;99.90;;;;;;5144141;28;20384;-64
2023/01/12 05:38:57;;;;;;;16.02;14.68;;;8.40;99.90;;;;;;5144150;28;20483;-65
2023/01/12 05:59:03;;;;;;;9.65;8.65;;;7.50;99.90;;;;;;5307175;27;20442;-65
2023/01/12 06:01:34;;;;;;;14.98;13.48;;;7.90;99.90;;;;;;5306869;28;20028;-66
2023/01/12 06:04:04;;;;;;;14.10;10.77;;;7.90;99.90;;;;;;5306917;27;20028;-67
2023/01/12 06:06:35;;;;;;;10.90;9.77;;;7.80;99.90;;;;;;5306582;27;20114;-65
2023/01/12 06:09:06;;;;;;;8.50;7.60;;;7.80;99.90;;;;;;5306634;28;20023;-73
2023/01/12 06:14:26;;;;;;;7.78;5.80;;;7.70;99.90;;;;;;5306839;28;20080;-65
2023/01/12 06:16:57;;;;;;;7.00;5.30;;;7.80;99.90;;;;;;5306447;28;20023;-73
2023/01/12 06:19:28;;;;;;;11.00;5.70;;;7.80;99.90;;;;;;5306384;28;20019;-73
2023/01/12 06:21:59;;;;;;;9.82;5.90;;;7.90;99.90;;;;;;5306455;28;20094;-64
2023/01/12 06:24:29;;;;;;;6.28;4.38;;;8.20;99.90;;;;;;5306415;28;20023;-66
2023/01/12 06:27:00;;;;;;;10.05;9.02;;;8.30;99.90;;;;;;5306017;27;20501;-66
2023/01/12 06:29:31;;;;;;;11.70;10.35;;;8.30;99.90;;;;;;5306090;28;20161;-70
2023/01/12 06:32:02;;;;;;;11.63;10.45;;;8.40;99.90;;;;;;5306351;27;20008;-68
2023/01/12 06:34:34;;;;;;;11.45;10.35;;;8.40;99.90;;;;;;5306350;27;20023;-64
2023/01/12 06:37:07;;;;;;;13.95;9.95;;;8.30;99.90;;;;;;5304772;28;20466;-71
2023/01/12 06:39:37;;;;;;;35.95;18.33;;;7.90;99.90;;;;;;5306026;27;20027;-64
2023/01/12 06:42:27;;;;;;;10.30;7.85;;;8.00;99.90;;;;;;5305997;27;20089;-65
2023/01/12 06:45:02;;;;;;;13.93;8.90;;;8.00;99.90;;;;;;5306033;28;20025;-66
2023/01/12 06:47:33;;;;;;;17.08;9.38;;;8.10;99.90;;;;;;5305909;27;20070;-65
2023/01/12 06:50:04;;;;;;;14.10;12.40;;;8.10;99.90;;;;;;5305996;28;20430;-73
2023/01/12 06:52:35;;;;;;;17.48;11.90;;;8.20;99.90;;;;;;5305698;27;20032;-66
2023/01/12 06:55:06;;;;;;;12.02;8.18;;;8.00;99.90;;;;;;5305657;27;20435;-67
2023/01/12 06:57:37;;;;;;;15.00;10.27;;;8.10;99.90;;;;;;5304856;28;20118;-65
2023/01/12 07:00:11;;;;;;;22.38;14.90;;;8.30;99.90;;;;;;5290996;28;20095;-72
2023/01/12 07:02:42;;;;;;;33.53;22.17;;;8.40;99.90;;;;;;5291509;28;20043;-71
2023/01/12 07:05:13;;;;;;;16.42;12.90;;;8.50;99.90;;;;;;5291407;28;20071;-73
2023/01/12 07:07:44;;;;;;;15.00;13.50;;;8.90;99.90;;;;;;5291272;28;20126;-73
2023/01/12 07:10:16;;;;;;;18.55;14.90;;;8.90;99.90;;;;;;5291214;28;20024;-67
2023/01/12 07:12:47;;;;;;;22.63;15.90;;;8.80;99.90;;;;;;5291246;28;20106;-66
2023/01/12 07:15:18;;;;;;;14.52;12.98;;;8.80;99.90;;;;;;5291222;28;20099;-65
2023/01/12 07:17:57;;;;;;;21.60;19.63;;;8.90;99.90;;;;;;5291163;28;20556;-67
2023/01/12 07:20:28;;;;;;;24.50;21.90;;;9.20;99.90;;;;;;5291153;28;20016;-65
2023/01/12 07:22:59;;;;;;;21.73;19.58;;;9.40;99.90;;;;;;5291189;28;20098;-65
2023/01/12 07:25:30;;;;;;;16.15;14.50;;;9.60;99.90;;;;;;5291157;28;20069;-66
2023/01/12 07:28:00;;;;;;;14.32;12.85;;;9.70;99.90;;;;;;5290794;28;20051;-68
2023/01/12 07:30:31;;;;;;;17.35;15.15;;;9.80;99.90;;;;;;5290772;28;20048;-65
2023/01/12 07:33:11;;;;;;;14.93;13.52;;;9.80;99.90;;;;;;5290834;28;20066;-66
2023/01/12 07:35:42;;;;;;;21.13;19.10;;;9.80;99.90;;;;;;5290891;28;20059;-66
2023/01/12 07:38:13;;;;;;;18.38;16.48;;;9.80;99.90;;;;;;5290671;28;20027;-65
2023/01/12 07:40:44;;;;;;;17.88;15.70;;;10.00;99.90;;;;;;5290647;28;20020;-74
2023/01/12 07:43:17;;;;;;;15.02;13.60;;;10.30;99.90;;;;;;5290605;28;20372;-68
2023/01/12 07:45:48;;;;;;;14.68;13.18;;;10.50;99.90;;;;;;5290565;28;20028;-68
2023/01/12 07:48:20;;;;;;;19.98;15.98;;;10.60;99.90;;;;;;5290239;28;20058;-70
2023/01/12 07:50:51;;;;;;;17.58;12.73;;;10.80;99.90;;;;;;5290491;28;20024;-68
2023/01/12 07:53:22;;;;;;;16.17;12.65;;;11.00;99.90;;;;;;5290359;28;20028;-65
2023/01/12 07:55:53;;;;;;;16.10;11.93;;;11.30;99.90;;;;;;5290413;28;20016;-65
2023/01/12 07:58:26;;;;;;;17.05;11.23;;;11.40;99.90;;;;;;5290244;28;20657;-66
2023/01/12 08:01:00;;;;;;;20.42;12.23;;;11.40;99.90;;;;;;5290323;28;20144;-69
2023/01/12 08:03:31;;;;;;;22.67;12.93;;;11.40;99.90;;;;;;5290288;28;20028;-66
2023/01/12 08:06:02;;;;;;;15.48;11.05;;;11.30;99.90;;;;;;5290240;28;20348;-70
2023/01/12 08:08:33;;;;;;;23.70;14.85;;;11.30;99.90;;;;;;5290026;28;20082;-65
2023/01/12 08:11:07;;;;;;;24.17;15.75;;;11.40;99.90;;;;;;5289135;28;20039;-68
2023/01/12 08:13:39;;;;;;;27.02;19.45;;;11.50;99.90;;;;;;5289936;28;20518;-65
2023/01/12 08:16:17;;;;;;;27.38;18.10;;;11.60;99.90;;;;;;5289935;28;20471;-65
2023/01/12 08:18:56;;;;;;;22.08;15.90;;;11.60;99.90;;;;;;5290069;28;20028;-72
2023/01/12 08:21:38;;;;;;;22.20;12.63;;;11.70;99.90;;;;;;5288475;28;20110;-74
2023/01/12 08:24:09;;;;;;;18.67;15.15;;;11.90;99.90;;;;;;5289716;28;20038;-65
2023/01/12 08:26:43;;;;;;;16.75;7.07;;;12.10;99.90;;;;;;5289548;28;20043;-70
2023/01/12 08:29:28;;;;;;;13.57;11.05;;;12.00;99.90;;;;;;5289642;28;20046;-68
2023/01/12 08:32:03;;;;;;;12.85;11.68;;;12.10;99.90;;;;;;5289851;28;20020;-65
2023/01/12 08:34:35;;;;;;;9.20;7.63;;;11.90;99.90;;;;;;5289867;28;20032;-69
2023/01/12 08:37:10;;;;;;;12.98;11.98;;;11.90;99.90;;;;;;5289708;28;20079;-71
2023/01/12 08:39:41;;;;;;;17.90;16.55;;;11.90;99.90;;;;;;5288431;28;20056;-64
2023/01/12 08:42:12;;;;;;;15.18;13.98;;;11.70;99.90;;;;;;5289582;28;20031;-66
2023/01/12 08:44:43;;;;;;;9.43;7.35;;;11.80;99.90;;;;;;5289516;28;20038;-73
2023/01/12 08:47:25;;;;;;;12.35;10.25;;;11.80;99.90;;;;;;5289253;28;20118;-70
2023/01/12 08:49:59;;;;;;;16.38;14.88;;;11.90;99.90;;;;;;5289271;28;20510;-67
2023/01/12 08:52:31;;;;;;;12.32;11.20;;;11.80;99.90;;;;;;5289169;28;20019;-68
2023/01/12 08:55:03;;;;;;;10.57;9.52;;;11.80;99.90;;;;;;5289268;28;20072;-74
2023/01/12 08:57:34;;;;;;;11.52;9.35;;;12.00;99.90;;;;;;5287481;28;20040;-67
2023/01/12 09:00:05;;;;;;;11.52;8.07;;;12.10;99.90;;;;;;5289051;28;20038;-70
2023/01/12 09:02:36;;;;;;;7.43;6.72;;;12.10;99.90;;;;;;5289050;28;20016;-74
2023/01/12 09:05:07;;;;;;;12.15;6.72;;;12.00;99.90;;;;;;5289011;28;20019;-73
2023/01/12 09:07:38;;;;;;;9.23;8.27;;;11.90;99.90;;;;;;5288915;28;20486;-74
2023/01/12 09:10:09;;;;;;;10.93;8.52;;;11.80;99.90;;;;;;5289068;28;20079;-66
2023/01/12 09:12:40;;;;;;;10.95;7.78;;;11.90;99.90;;;;;;5289262;28;20042;-64
2023/01/12 09:15:11;;;;;;;12.20;8.10;;;11.90;99.90;;;;;;5289023;28;20020;-65
2023/01/12 09:17:43;;;;;;;13.10;9.07;;;11.90;99.90;;;;;;5288749;28;20371;-65
2023/01/12 09:20:14;;;;;;;13.60;9.95;;;12.00;99.90;;;;;;5289042;28;20019;-74
2023/01/12 09:22:45;;;;;;;9.90;8.85;;;12.10;99.90;;;;;;5289012;28;20382;-72
2023/01/12 09:25:16;;;;;;;15.05;9.98;;;12.10;99.90;;;;;;5289088;28;20028;-69
2023/01/12 09:27:47;;;;;;;14.00;8.60;;;12.30;99.90;;;;;;5288994;28;20444;-67
2023/01/12 09:30:18;;;;;;;15.90;14.43;;;12.20;99.90;;;;;;5288601;28;20059;-71
2023/01/12 09:32:49;;;;;;;10.48;8.40;;;12.30;99.90;;;;;;5288606;28;20024;-66
2023/01/12 09:35:20;;;;;;;10.02;8.25;;;12.30;99.90;;;;;;5288489;28;20035;-65
2023/01/12 09:37:52;;;;;;;16.25;11.68;;;12.10;99.90;;;;;;5288508;28;20085;-74
2023/01/12 09:40:23;;;;;;;16.70;11.52;;;12.00;99.90;;;;;;5288509;28;20022;-66
2023/01/12 09:48:33;;;;;;;16.63;12.52;;;11.90;99.90;;;;;;5288186;28;20050;-73
2023/01/12 09:51:26;;;;;;;15.07;10.05;;;11.90;99.90;;;;;;5288445;28;20027;-73
2023/01/12 09:53:57;;;;;;;11.05;9.05;;;11.80;99.90;;;;;;5288621;28;20024;-74
2023/01/12 09:56:37;;;;;;;12.77;9.98;;;11.70;99.90;;;;;;5288310;28;20042;-73
2023/01/12 09:59:16;;;;;;;8.43;7.68;;;11.60;99.90;;;;;;5288307;28;20047;-66
2023/01/12 10:01:51;;;;;;;10.20;9.02;;;11.50;99.90;;;;;;5288096;28;20035;-71
2023/01/12 10:04:22;;;;;;;10.05;9.05;;;11.40;99.90;;;;;;5288207;28;20031;-74
2023/01/12 10:06:54;;;;;;;9.88;6.68;;;11.50;99.90;;;;;;5287985;28;20032;-74
2023/01/12 10:09:25;;;;;;;10.32;6.93;;;11.40;99.90;;;;;;5288082;28;20097;-68
2023/01/12 10:12:34;;;;;;;9.45;7.50;;;11.40;99.90;;;;;;5288077;28;20117;-67
2023/01/12 10:15:13;;;;;;;8.00;6.22;;;11.40;99.90;;;;;;5288083;28;20473;-68
2023/01/12 10:17:58;;;;;;;8.38;7.13;;;11.30;99.90;;;;;;5288033;28;20035;-74
2023/01/12 10:20:40;;;;;;;8.88;6.78;;;11.40;99.90;;;;;;5288231;28;20071;-66
2023/01/12 10:23:18;;;;;;;7.63;6.70;;;11.30;99.90;;;;;;5288138;28;20031;-66
2023/01/12 10:26:02;;;;;;;10.07;6.18;;;11.30;99.90;;;;;;5287899;28;20020;-66
2023/01/12 10:28:35;;;;;;;8.07;6.60;;;11.10;99.90;;;;;;5287910;28;20044;-73
2023/01/12 10:31:15;;;;;;;6.07;5.28;;;11.10;99.90;;;;;;5288091;28;20031;-65
2023/01/12 10:34:09;;;;;;;5.83;4.90;;;11.10;99.90;;;;;;5289249;28;20425;-74
2023/01/12 10:36:49;;;;;;;7.40;5.18;;;11.20;99.90;;;;;;5292088;28;20268;-65
2023/01/12 10:39:33;;;;;;;9.43;5.57;;;11.20;99.90;;;;;;5291966;28;20153;-68
2023/01/12 10:45:22;;;;;;;6.25;5.20;;;11.10;99.90;;;;;;5292127;28;20445;-71
2023/01/12 10:47:53;;;;;;;6.45;5.47;;;10.80;99.90;;;;;;5291653;28;20035;-65
2023/01/12 10:50:30;;;;;;;6.50;3.65;;;10.60;99.90;;;;;;5291842;28;20038;-72
2023/01/12 10:53:05;;;;;;;8.20;3.47;;;10.70;99.90;;;;;;5291635;28;20114;-66
2023/01/12 10:55:39;;;;;;;8.65;4.38;;;10.70;99.90;;;;;;5291691;28;20019;-65
2023/01/12 10:58:26;;;;;;;7.05;5.70;;;10.50;99.90;;;;;;5291141;28;20125;-65
2023/01/12 11:00:57;;;;;;;8.07;5.72;;;10.60;99.90;;;;;;5291515;28;20037;-69
2023/01/12 11:03:38;;;;;;;7.78;5.22;;;10.50;99.90;;;;;;5291352;28;20023;-68
2023/01/12 11:06:21;;;;;;;;;;;10.50;99.90;;;;;;5291764;28;20036;-65
2023/01/12 11:08:52;;;;;;;5.00;2.33;;;10.40;99.90;;;;;;5291220;28;19917;-70
2023/01/12 11:11:32;;;;;;;2.20;2.00;;;10.30;99.90;;;;;;5291257;28;20026;-68
2023/01/12 11:14:04;;;;;;;4.88;4.03;;;10.30;99.90;;;;;;5291284;28;20067;-68
2023/01/12 11:16:43;;;;;;;6.75;3.35;;;10.10;99.90;;;;;;5291168;28;20039;-70
2023/01/12 11:19:17;;;;;;;5.90;4.30;;;10.00;99.90;;;;;;5291087;28;20505;-65
2023/01/12 11:22:01;;;;;;;5.15;3.42;;;9.90;99.90;;;;;;5290992;28;20032;-66
2023/01/12 11:24:43;;;;;;;4.75;3.65;;;9.90;99.90;;;;;;5291070;28;20077;-65
2023/01/12 11:27:21;;;;;;;7.88;4.40;;;9.80;99.90;;;;;;5290816;28;20525;-68
2023/01/12 11:29:58;;;;;;;7.28;3.67;;;9.90;99.90;;;;;;5290930;28;20081;-71
2023/01/12 11:32:44;;;;;;;6.15;4.20;;;9.70;99.90;;;;;;5290891;28;20110;-65
2023/01/12 11:35:52;;;;;;;6.72;3.70;;;9.60;99.90;;;;;;5290791;28;20026;-73
2023/01/12 11:38:46;;;;;;;3.63;2.17;;;9.60;99.90;;;;;;5290699;28;20028;-66
2023/01/12 11:41:29;;;;;;;4.63;2.83;;;9.80;99.90;;;;;;5290739;28;20097;-73
2023/01/12 11:44:24;;;;;;;7.15;2.78;;;9.80;99.90;;;;;;5290366;28;20028;-64
2023/01/12 11:47:03;;;;;;;5.15;3.67;;;9.80;99.90;;;;;;5290507;28;20032;-68
2023/01/12 11:49:49;;;;;;;4.93;4.40;;;9.80;99.90;;;;;;5290526;28;20036;-74
2023/01/12 11:52:20;;;;;;;7.50;4.05;;;9.70;99.90;;;;;;5290445;28;20158;-66
2023/01/12 11:54:50;;;;;;;5.85;3.13;;;9.80;99.90;;;;;;5289028;28;20080;-74
2023/01/12 11:57:44;;;;;;;5.78;3.05;;;10.00;99.90;;;;;;5290031;28;20490;-74
2023/01/12 12:00:36;;;;;;;10.73;5.35;;;9.70;99.90;;;;;;5290645;28;20494;-66
2023/01/12 12:03:29;;;;;;;10.13;3.13;;;9.80;99.90;;;;;;5290555;28;20470;-67
2023/01/12 12:06:28;;;;;;;5.70;3.35;;;9.50;99.90;;;;;;5289087;28;20114;-65
2023/01/12 12:09:17;;;;;;;8.60;3.05;;;9.40;99.90;;;;;;5290101;28;20063;-72
2023/01/12 12:12:06;;;;;;;4.63;2.55;;;9.40;99.90;;;;;;5290224;28;20088;-74
2023/01/12 12:14:53;;;;;;;6.10;2.90;;;9.40;99.90;;;;;;5290261;28;20467;-74
2023/01/12 12:17:51;;;;;;;7.00;4.00;;;9.40;99.90;;;;;;5289964;28;20085;-68
2023/01/12 12:20:40;;;;;;;4.97;3.40;;;9.50;99.90;;;;;;5289994;28;20394;-67
2023/01/12 12:23:35;;;;;;;10.10;3.58;;;9.40;99.90;;;;;;5289847;28;20047;-74
2023/01/12 12:26:26;;;;;;;10.98;4.47;;;9.30;99.90;;;;;;5290013;28;20523;-74
2023/01/12 12:29:24;;;;;;;5.10;4.10;;;9.50;99.90;;;;;;5287963;28;20086;-74
2023/01/12 12:32:17;;;;;;;15.88;4.80;;;9.40;99.90;;;;;;5289701;28;20028;-72
2023/01/12 12:35:10;;;;;;;5.85;3.83;;;9.30;99.90;;;;;;5289564;28;20051;-74
2023/01/12 12:38:02;;;;;;;3.95;3.65;;;9.50;99.90;;;;;;5289555;28;20412;-74
2023/01/12 12:46:43;;;;;;;5.83;2.03;;;9.20;99.90;;;;;;5289736;28;20038;-73
2023/01/12 12:49:18;;;;;;;7.32;4.03;;;9.00;99.90;;;;;;5287628;28;20027;-73
2023/01/12 12:51:50;;;;;;;4.40;1.80;;;9.10;99.90;;;;;;5275091;28;20032;-66
2023/01/12 12:54:22;;;;;;;4.15;1.98;;;9.20;99.90;;;;;;5268664;28;20031;-73
2023/01/12 12:56:54;;;;;;;4.05;1.83;;;9.10;99.90;;;;;;5267619;28;20099;-73
2023/01/12 12:59:31;;;;;;;3.97;3.67;;;9.00;99.90;;;;;;5268311;28;20030;-65
2023/01/12 13:02:02;;;;;;;5.32;2.85;;;9.30;99.90;;;;;;5268199;28;20031;-70
2023/01/12 13:04:42;;;;;;;6.55;3.58;;;9.00;99.90;;;;;;5267967;28;20066;-70
2023/01/12 13:07:18;;;;;;;3.65;3.10;;;9.00;99.90;;;;;;5267955;28;20040;-66
2023/01/12 13:09:49;;;;;;;6.75;3.85;;;9.10;99.90;;;;;;5267916;28;20099;-68
2023/01/12 13:12:30;;;;;;;4.30;3.88;;;9.20;99.90;;;;;;5267787;28;20032;-66
2023/01/12 13:15:22;;;;;;;4.43;2.92;;;9.10;99.90;;;;;;5267808;28;20051;-73
2023/01/12 13:17:54;;;;;;;6.15;3.53;;;8.90;99.90;;;;;;5267616;28;20089;-73
2023/01/12 13:20:48;;;;;;;5.03;3.00;;;8.70;99.90;;;;;;5267746;28;20027;-68
2023/01/12 13:23:42;;;;;;;7.45;2.88;;;8.70;99.90;;;;;;5267696;28;20066;-67
2023/01/12 13:26:33;;;;;;;5.32;2.88;;;8.70;99.90;;;;;;5267578;28;20074;-73
2023/01/12 13:29:22;;;;;;;11.70;4.25;;;8.80;99.90;;;;;;5267632;28;20039;-66
2023/01/12 13:32:15;;;;;;;10.63;5.07;;;8.60;99.90;;;;;;5267543;28;20035;-74
2023/01/12 13:34:45;;;;;;;10.43;5.20;;;8.80;99.90;;;;;;5267453;28;20070;-70
2023/01/12 13:37:46;;;;;;;10.32;4.90;;;8.50;99.90;;;;;;5267476;28;20050;-73
2023/01/12 13:40:25;;;;;;;9.43;5.22;;;8.40;99.90;;;;;;5267458;28;20032;-72
2023/01/12 13:43:15;;;;;;;6.35;3.58;;;8.50;99.90;;;;;;5267420;28;20034;-71
2023/01/12 13:46:03;;;;;;;9.18;3.95;;;8.70;99.90;;;;;;5267488;28;20032;-66
2023/01/12 13:48:35;;;;;;;5.60;2.65;;;8.50;99.90;;;;;;5267092;28;20379;-73
2023/01/12 13:51:21;;;;;;;5.22;3.10;;;8.30;99.90;;;;;;5267333;28;20031;-67
2023/01/12 13:54:06;;;;;;;4.72;2.33;;;8.40;99.90;;;;;;5267613;28;20410;-73
2023/01/12 13:56:37;;;;;;;8.27;3.42;;;8.20;99.90;;;;;;5267526;28;20032;-73
2023/01/12 13:59:18;;;;;;;8.05;3.40;;;8.30;99.90;;;;;;5267389;28;20024;-73
2023/01/12 14:01:49;;;;;;;7.70;3.90;;;8.40;99.90;;;;;;5267208;28;20116;-73
2023/01/12 14:04:29;;;;;;;12.70;4.35;;;8.40;99.90;;;;;;5267230;28;20048;-65
2023/01/12 14:07:15;;;;;;;7.05;4.35;;;8.20;99.90;;;;;;5267199;28;20460;-73
2023/01/12 14:10:01;;;;;;;4.05;3.30;;;8.10;99.90;;;;;;5269019;28;20031;-70
2023/01/12 14:12:41;;;;;;;4.60;3.92;;;8.30;99.90;;;;;;5271395;28;20024;-73
2023/01/12 14:18:45;;;;;;;5.57;2.72;;;8.10;99.90;;;;;;5271164;28;20470;-66
2023/01/12 14:21:32;;;;;;;5.75;2.72;;;8.30;99.90;;;;;;5271150;28;20467;-66
2023/01/12 14:24:23;;;;;;;3.50;2.30;;;8.10;99.90;;;;;;5271148;28;20471;-73
2023/01/12 14:26:54;;;;;;;6.32;3.67;;;8.00;99.90;;;;;;5270964;28;20530;-70
2023/01/12 14:29:25;;;;;;;8.27;2.50;;;8.30;99.90;;;;;;5271059;28;20027;-64
2023/01/12 14:31:57;;;;;;;5.60;3.33;;;8.30;99.90;;;;;;5270933;28;20026;-69
2023/01/12 14:34:36;;;;;;;4.63;3.35;;;8.20;99.90;;;;;;5270912;28;20077;-71
2023/01/12 14:37:28;;;;;;;8.23;5.00;;;8.10;99.90;;;;;;5270901;28;20538;-67
2023/01/12 14:39:59;;;;;;;4.93;3.80;;;8.00;99.90;;;;;;5270847;28;20498;-65